메인 페이지
METAR-TAF:

METAR-TAF

공항 :

암만, 요르단

위도: 31-59N, 경도: 035-59E, 고도: 767m

현재 날씨관측

예보는 28분 전, 03:00시(UTC)에 발표되었습니다.
3kt
온도 19°C
습도 83%
기압 1013 hPa
시정: 8000m
고도 2500ft 상공 구름 조금

METAR: OJAM 170300Z 36003KT 8000 FEW025 19/16 Q1013 NOSIG

시각: 06:28 (03:28 UTC)

예보

예보는 4 시간 28분 전, 23:00시(UTC)에 발표되었습니다.
예보 대상 시간: 17일 00시부터 18일 06시까지 (UTC)
6kt
시정: 5000m
연무
일시적
17일 10시부터 17일 15시까지 (UTC)
서북서14kt
시정: 4000m

TAF: OJAM 162300Z 1700/1806 28006KT 5000 HZ NSC TEMPO 1710/1715 29014KT 4000

4,000개 이상의 공항 관측 자료 및 예보 (METAR 및 TAF 보고).

지도상에서 검색 가능한 기상관측소가 노란 점과 빨간 점으로 표시되어 있습니다.

기상관측소 명을 보려면 표시 위로 마우스를 이동하세요.

날씨 관측과 예보를 보려면 클릭하세요.

지도 변경 : 확대하려면 엑스 표시가 있는 녹색 버튼, 축소하려면 빼기 표시가 있는 녹색 버튼, 다음 페이지의 지도를 보려면 녹색 화살표를 클릭하세요.


METAR-TAF: